sensor_id;sensor_type;location;lat;lon;timestamp;P1;durP1;ratioP1;P2;durP2;ratioP2
10232;SDS011;5161;48.174;11.756;2024-03-23T00:53:01;5.23;;;4.73;;
10232;SDS011;5161;48.174;11.756;2024-03-23T00:55:27;6.33;;;4.30;;
10232;SDS011;5161;48.174;11.756;2024-03-23T00:57:52;4.63;;;4.20;;
10232;SDS011;5161;48.174;11.756;2024-03-23T01:00:18;4.87;;;4.47;;
10232;SDS011;5161;48.174;11.756;2024-03-23T01:02:43;4.73;;;4.00;;
10232;SDS011;5161;48.174;11.756;2024-03-23T01:05:09;4.43;;;4.13;;
10232;SDS011;5161;48.174;11.756;2024-03-23T01:07:35;5.00;;;4.60;;
10232;SDS011;5161;48.174;11.756;2024-03-23T01:10:03;6.33;;;4.50;;
10232;SDS011;5161;48.174;11.756;2024-03-23T01:12:29;4.83;;;4.20;;
10232;SDS011;5161;48.174;11.756;2024-03-23T01:14:54;5.93;;;4.47;;
10232;SDS011;5161;48.174;11.756;2024-03-23T01:17:20;8.07;;;4.63;;
10232;SDS011;5161;48.174;11.756;2024-03-23T01:19:48;5.27;;;4.80;;
10232;SDS011;5161;48.174;11.756;2024-03-23T01:22:14;7.77;;;4.40;;
10232;SDS011;5161;48.174;11.756;2024-03-23T01:24:40;5.27;;;4.50;;
10232;SDS011;5161;48.174;11.756;2024-03-23T01:27:05;6.70;;;4.40;;
10232;SDS011;5161;48.174;11.756;2024-03-23T01:29:31;4.50;;;4.10;;
10232;SDS011;5161;48.174;11.756;2024-03-23T01:31:57;4.80;;;3.93;;
10232;SDS011;5161;48.174;11.756;2024-03-23T01:34:22;7.47;;;4.30;;
10232;SDS011;5161;48.174;11.756;2024-03-23T01:36:55;4.47;;;4.07;;
10232;SDS011;5161;48.174;11.756;2024-03-23T01:39:21;4.30;;;3.93;;
10232;SDS011;5161;48.174;11.756;2024-03-23T01:41:46;4.13;;;3.83;;
10232;SDS011;5161;48.174;11.756;2024-03-23T01:44:12;4.67;;;3.73;;
10232;SDS011;5161;48.174;11.756;2024-03-23T01:46:38;4.40;;;4.03;;
10232;SDS011;5161;48.174;11.756;2024-03-23T01:49:06;4.37;;;4.00;;
10232;SDS011;5161;48.174;11.756;2024-03-23T01:51:32;4.50;;;4.10;;
10232;SDS011;5161;48.174;11.756;2024-03-23T01:53:59;6.33;;;4.03;;
10232;SDS011;5161;48.174;11.756;2024-03-23T01:56:32;4.37;;;4.07;;
10232;SDS011;5161;48.174;11.756;2024-03-23T01:59:04;6.17;;;4.30;;
10232;SDS011;5161;48.174;11.756;2024-03-23T02:01:30;4.93;;;4.30;;
10232;SDS011;5161;48.174;11.756;2024-03-23T02:03:56;5.20;;;4.40;;
10232;SDS011;5161;48.174;11.756;2024-03-23T02:06:23;5.73;;;4.23;;
10232;SDS011;5161;48.174;11.756;2024-03-23T02:08:50;4.03;;;3.73;;
10232;SDS011;5161;48.174;11.756;2024-03-23T02:11:15;4.67;;;3.80;;
10232;SDS011;5161;48.174;11.756;2024-03-23T02:13:43;5.30;;;4.10;;
10232;SDS011;5161;48.174;11.756;2024-03-23T02:16:09;7.23;;;3.87;;
10232;SDS011;5161;48.174;11.756;2024-03-23T02:18:35;4.00;;;3.70;;
10232;SDS011;5161;48.174;11.756;2024-03-23T02:21:01;4.20;;;3.50;;
10232;SDS011;5161;48.174;11.756;2024-03-23T02:23:27;4.00;;;3.70;;
10232;SDS011;5161;48.174;11.756;2024-03-23T02:25:52;4.03;;;3.73;;
10232;SDS011;5161;48.174;11.756;2024-03-23T02:28:18;4.13;;;3.80;;
10232;SDS011;5161;48.174;11.756;2024-03-23T02:30:48;4.43;;;3.83;;
10232;SDS011;5161;48.174;11.756;2024-03-23T02:33:14;4.30;;;4.00;;
10232;SDS011;5161;48.174;11.756;2024-03-23T02:35:40;3.80;;;3.50;;
10232;SDS011;5161;48.174;11.756;2024-03-23T02:38:06;3.73;;;3.43;;
10232;SDS011;5161;48.174;11.756;2024-03-23T02:40:31;4.17;;;3.77;;
10232;SDS011;5161;48.174;11.756;2024-03-23T02:42:57;4.13;;;3.70;;
10232;SDS011;5161;48.174;11.756;2024-03-23T02:45:22;4.77;;;3.40;;
10232;SDS011;5161;48.174;11.756;2024-03-23T02:47:48;3.87;;;3.43;;
10232;SDS011;5161;48.174;11.756;2024-03-23T02:50:17;3.77;;;3.43;;
10232;SDS011;5161;48.174;11.756;2024-03-23T02:52:43;3.83;;;3.50;;
10232;SDS011;5161;48.174;11.756;2024-03-23T02:55:09;3.90;;;3.50;;
10232;SDS011;5161;48.174;11.756;2024-03-23T02:57:35;4.07;;;3.50;;
10232;SDS011;5161;48.174;11.756;2024-03-23T03:00:00;3.93;;;3.63;;
10232;SDS011;5161;48.174;11.756;2024-03-23T03:02:26;3.77;;;3.43;;
10232;SDS011;5161;48.174;11.756;2024-03-23T03:04:52;3.30;;;3.10;;
10232;SDS011;5161;48.174;11.756;2024-03-23T03:07:17;3.77;;;3.47;;
10232;SDS011;5161;48.174;11.756;2024-03-23T03:09:43;3.93;;;3.40;;
10232;SDS011;5161;48.174;11.756;2024-03-23T03:12:09;4.07;;;3.53;;
10232;SDS011;5161;48.174;11.756;2024-03-23T03:14:34;3.77;;;3.37;;
10232;SDS011;5161;48.174;11.756;2024-03-23T03:17:00;3.57;;;3.37;;
10232;SDS011;5161;48.174;11.756;2024-03-23T03:19:26;4.20;;;3.60;;
10232;SDS011;5161;48.174;11.756;2024-03-23T03:21:52;3.80;;;3.50;;
10232;SDS011;5161;48.174;11.756;2024-03-23T03:24:23;4.10;;;3.70;;
10232;SDS011;5161;48.174;11.756;2024-03-23T03:26:48;3.33;;;3.10;;
10232;SDS011;5161;48.174;11.756;2024-03-23T03:29:17;3.60;;;3.40;;
10232;SDS011;5161;48.174;11.756;2024-03-23T03:31:43;4.00;;;3.57;;
10232;SDS011;5161;48.174;11.756;2024-03-23T03:34:09;4.13;;;3.73;;
10232;SDS011;5161;48.174;11.756;2024-03-23T03:36:34;3.93;;;3.53;;
10232;SDS011;5161;48.174;11.756;2024-03-23T03:39:00;4.07;;;3.23;;
10232;SDS011;5161;48.174;11.756;2024-03-23T03:41:27;4.10;;;3.30;;
10232;SDS011;5161;48.174;11.756;2024-03-23T03:43:53;4.53;;;3.50;;
10232;SDS011;5161;48.174;11.756;2024-03-23T03:46:20;3.90;;;3.60;;
10232;SDS011;5161;48.174;11.756;2024-03-23T03:48:47;3.53;;;3.30;;
10232;SDS011;5161;48.174;11.756;2024-03-23T03:51:13;3.73;;;3.43;;
10232;SDS011;5161;48.174;11.756;2024-03-23T03:53:39;4.33;;;3.60;;
10232;SDS011;5161;48.174;11.756;2024-03-23T03:56:05;5.77;;;3.60;;
10232;SDS011;5161;48.174;11.756;2024-03-23T03:58:30;3.73;;;3.43;;
10232;SDS011;5161;48.174;11.756;2024-03-23T04:00:56;3.60;;;3.40;;
10232;SDS011;5161;48.174;11.756;2024-03-23T04:03:21;4.23;;;3.70;;
10232;SDS011;5161;48.174;11.756;2024-03-23T04:05:53;3.80;;;3.50;;
10232;SDS011;5161;48.174;11.756;2024-03-23T04:08:19;4.03;;;3.50;;
10232;SDS011;5161;48.174;11.756;2024-03-23T04:10:46;3.23;;;2.93;;
10232;SDS011;5161;48.174;11.756;2024-03-23T04:13:14;4.77;;;3.33;;
10232;SDS011;5161;48.174;11.756;2024-03-23T04:15:41;3.33;;;3.03;;
10232;SDS011;5161;48.174;11.756;2024-03-23T04:18:07;3.40;;;3.10;;
10232;SDS011;5161;48.174;11.756;2024-03-23T04:20:33;3.77;;;3.57;;
10232;SDS011;5161;48.174;11.756;2024-03-23T04:22:59;3.60;;;3.30;;
10232;SDS011;5161;48.174;11.756;2024-03-23T04:25:25;3.57;;;3.27;;
10232;SDS011;5161;48.174;11.756;2024-03-23T04:27:50;3.43;;;3.13;;
10232;SDS011;5161;48.174;11.756;2024-03-23T04:30:16;3.47;;;3.23;;
10232;SDS011;5161;48.174;11.756;2024-03-23T04:32:42;3.50;;;3.30;;
10232;SDS011;5161;48.174;11.756;2024-03-23T04:35:08;3.40;;;3.10;;
10232;SDS011;5161;48.174;11.756;2024-03-23T04:37:38;3.40;;;3.10;;
10232;SDS011;5161;48.174;11.756;2024-03-23T04:40:06;3.57;;;3.23;;
10232;SDS011;5161;48.174;11.756;2024-03-23T04:42:32;3.53;;;3.23;;
10232;SDS011;5161;48.174;11.756;2024-03-23T04:44:58;3.57;;;3.27;;
10232;SDS011;5161;48.174;11.756;2024-03-23T04:47:24;3.33;;;3.00;;
10232;SDS011;5161;48.174;11.756;2024-03-23T04:49:50;3.50;;;3.20;;
10232;SDS011;5161;48.174;11.756;2024-03-23T04:52:16;3.20;;;3.00;;
10232;SDS011;5161;48.174;11.756;2024-03-23T04:54:42;3.97;;;3.17;;
10232;SDS011;5161;48.174;11.756;2024-03-23T04:57:11;3.43;;;3.13;;
10232;SDS011;5161;48.174;11.756;2024-03-23T04:59:36;4.10;;;2.90;;
10232;SDS011;5161;48.174;11.756;2024-03-23T05:02:02;3.37;;;3.07;;
10232;SDS011;5161;48.174;11.756;2024-03-23T05:04:28;4.53;;;3.23;;
10232;SDS011;5161;48.174;11.756;2024-03-23T05:06:53;3.20;;;3.00;;
10232;SDS011;5161;48.174;11.756;2024-03-23T05:09:19;4.57;;;3.20;;
10232;SDS011;5161;48.174;11.756;2024-03-23T05:11:45;4.13;;;3.00;;
10232;SDS011;5161;48.174;11.756;2024-03-23T05:14:14;3.10;;;2.90;;
10232;SDS011;5161;48.174;11.756;2024-03-23T05:16:40;4.20;;;3.00;;
10232;SDS011;5161;48.174;11.756;2024-03-23T05:19:06;3.30;;;3.07;;
10232;SDS011;5161;48.174;11.756;2024-03-23T05:21:31;3.10;;;2.90;;
10232;SDS011;5161;48.174;11.756;2024-03-23T05:23:57;4.17;;;2.53;;
10232;SDS011;5161;48.174;11.756;2024-03-23T05:26:23;3.03;;;2.73;;
10232;SDS011;5161;48.174;11.756;2024-03-23T05:28:48;4.10;;;2.87;;
10232;SDS011;5161;48.174;11.756;2024-03-23T05:31:24;2.77;;;2.57;;
10232;SDS011;5161;48.174;11.756;2024-03-23T05:33:50;3.00;;;2.77;;
10232;SDS011;5161;48.174;11.756;2024-03-23T05:36:15;3.00;;;2.80;;
10232;SDS011;5161;48.174;11.756;2024-03-23T05:38:42;2.97;;;2.70;;
10232;SDS011;5161;48.174;11.756;2024-03-23T05:41:08;4.97;;;2.60;;
10232;SDS011;5161;48.174;11.756;2024-03-23T05:43:33;2.80;;;2.60;;
10232;SDS011;5161;48.174;11.756;2024-03-23T05:45:59;4.87;;;2.80;;
10232;SDS011;5161;48.174;11.756;2024-03-23T05:48:26;4.27;;;2.57;;
10232;SDS011;5161;48.174;11.756;2024-03-23T05:50:53;3.33;;;2.80;;
10232;SDS011;5161;48.174;11.756;2024-03-23T05:53:18;2.53;;;2.43;;
10232;SDS011;5161;48.174;11.756;2024-03-23T05:55:47;2.80;;;2.60;;
10232;SDS011;5161;48.174;11.756;2024-03-23T05:58:14;3.80;;;2.60;;
10232;SDS011;5161;48.174;11.756;2024-03-23T06:00:41;2.80;;;2.60;;
10232;SDS011;5161;48.174;11.756;2024-03-23T06:03:07;2.97;;;2.67;;
10232;SDS011;5161;48.174;11.756;2024-03-23T06:05:33;4.83;;;2.60;;
10232;SDS011;5161;48.174;11.756;2024-03-23T06:07:58;5.93;;;2.50;;
10232;SDS011;5161;48.174;11.756;2024-03-23T06:10:24;3.00;;;2.60;;
10232;SDS011;5161;48.174;11.756;2024-03-23T06:12:50;2.87;;;2.30;;
10232;SDS011;5161;48.174;11.756;2024-03-23T06:15:17;4.23;;;2.70;;
10232;SDS011;5161;48.174;11.756;2024-03-23T06:17:43;2.80;;;2.60;;
10232;SDS011;5161;48.174;11.756;2024-03-23T06:20:09;4.40;;;2.50;;
10232;SDS011;5161;48.174;11.756;2024-03-23T06:22:35;3.00;;;2.80;;
10232;SDS011;5161;48.174;11.756;2024-03-23T06:25:01;3.00;;;2.70;;
10232;SDS011;5161;48.174;11.756;2024-03-23T06:27:27;5.13;;;2.60;;
10232;SDS011;5161;48.174;11.756;2024-03-23T06:29:52;3.33;;;2.57;;
10232;SDS011;5161;48.174;11.756;2024-03-23T06:32:18;3.37;;;2.60;;
10232;SDS011;5161;48.174;11.756;2024-03-23T06:34:44;2.80;;;2.60;;
10232;SDS011;5161;48.174;11.756;2024-03-23T06:37:10;2.63;;;2.43;;
10232;SDS011;5161;48.174;11.756;2024-03-23T06:39:36;3.60;;;2.60;;
10232;SDS011;5161;48.174;11.756;2024-03-23T06:42:02;2.50;;;2.40;;
10232;SDS011;5161;48.174;11.756;2024-03-23T06:44:28;2.67;;;2.47;;
10232;SDS011;5161;48.174;11.756;2024-03-23T06:46:54;2.97;;;2.40;;
10232;SDS011;5161;48.174;11.756;2024-03-23T06:49:19;3.53;;;2.50;;
10232;SDS011;5161;48.174;11.756;2024-03-23T06:51:45;2.77;;;2.57;;
10232;SDS011;5161;48.174;11.756;2024-03-23T06:54:11;2.80;;;2.60;;
10232;SDS011;5161;48.174;11.756;2024-03-23T06:56:37;2.60;;;2.40;;
10232;SDS011;5161;48.174;11.756;2024-03-23T06:59:03;2.87;;;2.53;;
10232;SDS011;5161;48.174;11.756;2024-03-23T07:01:28;2.77;;;2.50;;
10232;SDS011;5161;48.174;11.756;2024-03-23T07:03:54;2.57;;;2.30;;
10232;SDS011;5161;48.174;11.756;2024-03-23T07:06:20;2.93;;;2.33;;
10232;SDS011;5161;48.174;11.756;2024-03-23T07:08:46;2.40;;;2.30;;
10232;SDS011;5161;48.174;11.756;2024-03-23T07:11:12;2.83;;;2.63;;
10232;SDS011;5161;48.174;11.756;2024-03-23T07:13:43;3.13;;;2.37;;
10232;SDS011;5161;48.174;11.756;2024-03-23T07:16:08;2.53;;;2.40;;
10232;SDS011;5161;48.174;11.756;2024-03-23T07:18:34;2.73;;;2.50;;
10232;SDS011;5161;48.174;11.756;2024-03-23T07:20:59;2.50;;;2.30;;
10232;SDS011;5161;48.174;11.756;2024-03-23T07:23:25;3.43;;;2.60;;
10232;SDS011;5161;48.174;11.756;2024-03-23T07:28:22;2.77;;;2.57;;
10232;SDS011;5161;48.174;11.756;2024-03-23T07:30:48;2.40;;;2.30;;
10232;SDS011;5161;48.174;11.756;2024-03-23T07:33:13;2.77;;;2.53;;
10232;SDS011;5161;48.174;11.756;2024-03-23T07:35:39;4.27;;;2.60;;
10232;SDS011;5161;48.174;11.756;2024-03-23T07:38:04;3.00;;;2.70;;
10232;SDS011;5161;48.174;11.756;2024-03-23T07:40:30;3.70;;;2.97;;
10232;SDS011;5161;48.174;11.756;2024-03-23T07:42:56;3.13;;;2.83;;
10232;SDS011;5161;48.174;11.756;2024-03-23T07:45:22;3.30;;;3.00;;
10232;SDS011;5161;48.174;11.756;2024-03-23T07:47:47;4.07;;;3.00;;
10232;SDS011;5161;48.174;11.756;2024-03-23T07:50:13;3.10;;;2.50;;
10232;SDS011;5161;48.174;11.756;2024-03-23T07:52:39;5.18;;;3.13;;
10232;SDS011;5161;48.174;11.756;2024-03-23T07:55:05;3.97;;;3.10;;
10232;SDS011;5161;48.174;11.756;2024-03-23T07:57:31;3.80;;;3.13;;
10232;SDS011;5161;48.174;11.756;2024-03-23T07:59:57;3.83;;;2.70;;
10232;SDS011;5161;48.174;11.756;2024-03-23T08:02:22;3.00;;;2.80;;
10232;SDS011;5161;48.174;11.756;2024-03-23T08:04:48;4.10;;;2.97;;
10232;SDS011;5161;48.174;11.756;2024-03-23T08:07:16;2.90;;;2.70;;
10232;SDS011;5161;48.174;11.756;2024-03-23T08:09:49;3.00;;;2.70;;
10232;SDS011;5161;48.174;11.756;2024-03-23T08:12:16;4.43;;;3.07;;
10232;SDS011;5161;48.174;11.756;2024-03-23T08:14:42;3.30;;;3.00;;
10232;SDS011;5161;48.174;11.756;2024-03-23T08:17:13;3.70;;;3.40;;
10232;SDS011;5161;48.174;11.756;2024-03-23T08:19:39;3.93;;;3.53;;
10232;SDS011;5161;48.174;11.756;2024-03-23T08:22:04;3.67;;;3.33;;
10232;SDS011;5161;48.174;11.756;2024-03-23T08:24:31;5.20;;;3.23;;
10232;SDS011;5161;48.174;11.756;2024-03-23T08:26:59;4.17;;;3.43;;
10232;SDS011;5161;48.174;11.756;2024-03-23T08:29:25;4.33;;;3.70;;
10232;SDS011;5161;48.174;11.756;2024-03-23T08:31:51;4.83;;;3.27;;
10232;SDS011;5161;48.174;11.756;2024-03-23T08:34:20;4.03;;;3.63;;
10232;SDS011;5161;48.174;11.756;2024-03-23T08:36:49;4.37;;;3.57;;
10232;SDS011;5161;48.174;11.756;2024-03-23T08:39:18;5.33;;;3.50;;
10232;SDS011;5161;48.174;11.756;2024-03-23T08:41:44;4.53;;;3.37;;
10232;SDS011;5161;48.174;11.756;2024-03-23T08:44:11;5.40;;;3.50;;
10232;SDS011;5161;48.174;11.756;2024-03-23T08:46:37;4.90;;;3.30;;
10232;SDS011;5161;48.174;11.756;2024-03-23T08:49:02;3.63;;;3.37;;
10232;SDS011;5161;48.174;11.756;2024-03-23T08:51:29;3.83;;;3.53;;
10232;SDS011;5161;48.174;11.756;2024-03-23T08:53:55;4.67;;;4.20;;
10232;SDS011;5161;48.174;11.756;2024-03-23T08:56:20;3.80;;;3.47;;
10232;SDS011;5161;48.174;11.756;2024-03-23T08:58:48;4.20;;;3.90;;
10232;SDS011;5161;48.174;11.756;2024-03-23T09:01:13;4.00;;;3.70;;
10232;SDS011;5161;48.174;11.756;2024-03-23T09:03:40;3.83;;;3.53;;
10232;SDS011;5161;48.174;11.756;2024-03-23T09:06:07;4.00;;;3.70;;
10232;SDS011;5161;48.174;11.756;2024-03-23T09:08:34;3.87;;;3.57;;
10232;SDS011;5161;48.174;11.756;2024-03-23T09:11:04;3.50;;;3.30;;
10232;SDS011;5161;48.174;11.756;2024-03-23T09:13:31;3.80;;;3.30;;
10232;SDS011;5161;48.174;11.756;2024-03-23T09:16:03;3.77;;;3.47;;
10232;SDS011;5161;48.174;11.756;2024-03-23T09:18:32;4.23;;;3.50;;
10232;SDS011;5161;48.174;11.756;2024-03-23T09:21:00;3.50;;;3.20;;
10232;SDS011;5161;48.174;11.756;2024-03-23T09:23:29;3.30;;;3.00;;
10232;SDS011;5161;48.174;11.756;2024-03-23T09:25:56;3.10;;;2.80;;
10232;SDS011;5161;48.174;11.756;2024-03-23T09:28:24;3.10;;;2.90;;
10232;SDS011;5161;48.174;11.756;2024-03-23T09:30:50;3.20;;;2.90;;
10232;SDS011;5161;48.174;11.756;2024-03-23T09:33:16;3.40;;;3.20;;
10232;SDS011;5161;48.174;11.756;2024-03-23T09:35:43;4.13;;;3.37;;
10232;SDS011;5161;48.174;11.756;2024-03-23T09:38:13;3.30;;;3.00;;
10232;SDS011;5161;48.174;11.756;2024-03-23T09:40:42;3.13;;;2.17;;
10232;SDS011;5161;48.174;11.756;2024-03-23T09:43:11;2.60;;;2.50;;
10232;SDS011;5161;48.174;11.756;2024-03-23T09:45:41;2.20;;;2.00;;
10232;SDS011;5161;48.174;11.756;2024-03-23T09:48:11;2.00;;;1.90;;
10232;SDS011;5161;48.174;11.756;2024-03-23T09:50:38;1.50;;;1.50;;
10232;SDS011;5161;48.174;11.756;2024-03-23T09:53:11;2.03;;;1.60;;
10232;SDS011;5161;48.174;11.756;2024-03-23T09:55:42;1.50;;;1.50;;
10232;SDS011;5161;48.174;11.756;2024-03-23T09:58:12;1.80;;;1.70;;
10232;SDS011;5161;48.174;11.756;2024-03-23T10:00:41;1.80;;;1.70;;
10232;SDS011;5161;48.174;11.756;2024-03-23T10:03:07;1.87;;;1.67;;
10232;SDS011;5161;48.174;11.756;2024-03-23T10:05:36;1.93;;;1.83;;
10232;SDS011;5161;48.174;11.756;2024-03-23T10:10:43;1.87;;;1.77;;
10232;SDS011;5161;48.174;11.756;2024-03-23T10:13:09;1.67;;;1.57;;
10232;SDS011;5161;48.174;11.756;2024-03-23T10:15:39;1.93;;;1.80;;
10232;SDS011;5161;48.174;11.756;2024-03-23T10:18:18;1.90;;;1.80;;
10232;SDS011;5161;48.174;11.756;2024-03-23T10:21:07;2.10;;;1.90;;
10232;SDS011;5161;48.174;11.756;2024-03-23T10:23:36;1.57;;;1.47;;
10232;SDS011;5161;48.174;11.756;2024-03-23T10:28:50;1.70;;;1.60;;
10232;SDS011;5161;48.174;11.756;2024-03-23T10:31:33;1.60;;;1.50;;
10232;SDS011;5161;48.174;11.756;2024-03-23T10:34:02;1.80;;;1.60;;
10232;SDS011;5161;48.174;11.756;2024-03-23T10:36:28;1.50;;;1.50;;
10232;SDS011;5161;48.174;11.756;2024-03-23T10:38:55;1.60;;;1.50;;
10232;SDS011;5161;48.174;11.756;2024-03-23T10:41:26;1.53;;;1.43;;
10232;SDS011;5161;48.174;11.756;2024-03-23T10:43:57;1.40;;;1.30;;
10232;SDS011;5161;48.174;11.756;2024-03-23T10:46:24;1.30;;;1.30;;
10232;SDS011;5161;48.174;11.756;2024-03-23T10:48:50;1.97;;;1.50;;
10232;SDS011;5161;48.174;11.756;2024-03-23T10:51:16;1.37;;;1.37;;
10232;SDS011;5161;48.174;11.756;2024-03-23T10:53:43;1.50;;;1.40;;
10232;SDS011;5161;48.174;11.756;2024-03-23T10:56:12;4.73;;;1.60;;
10232;SDS011;5161;48.174;11.756;2024-03-23T10:58:44;2.50;;;1.60;;
10232;SDS011;5161;48.174;11.756;2024-03-23T11:01:19;2.67;;;1.67;;
10232;SDS011;5161;48.174;11.756;2024-03-23T11:03:46;1.57;;;1.47;;
10232;SDS011;5161;48.174;11.756;2024-03-23T11:06:33;1.83;;;1.53;;
10232;SDS011;5161;48.174;11.756;2024-03-23T11:09:03;1.50;;;1.50;;
10232;SDS011;5161;48.174;11.756;2024-03-23T11:11:29;1.40;;;1.30;;
10232;SDS011;5161;48.174;11.756;2024-03-23T11:13:59;1.30;;;1.30;;
10232;SDS011;5161;48.174;11.756;2024-03-23T11:16:28;1.00;;;1.00;;
10232;SDS011;5161;48.174;11.756;2024-03-23T11:19:33;1.40;;;1.30;;
10232;SDS011;5161;48.174;11.756;2024-03-23T11:22:02;1.30;;;1.30;;
10232;SDS011;5161;48.174;11.756;2024-03-23T11:24:31;1.30;;;1.30;;
10232;SDS011;5161;48.174;11.756;2024-03-23T11:26:57;1.40;;;1.30;;
10232;SDS011;5161;48.174;11.756;2024-03-23T11:29:26;1.37;;;1.30;;
10232;SDS011;5161;48.174;11.756;2024-03-23T11:31:57;1.40;;;1.30;;
10232;SDS011;5161;48.174;11.756;2024-03-23T11:34:29;2.50;;;1.30;;
10232;SDS011;5161;48.174;11.756;2024-03-23T11:37:03;1.97;;;1.40;;
10232;SDS011;5161;48.174;11.756;2024-03-23T11:39:32;1.77;;;1.67;;
10232;SDS011;5161;48.174;11.756;2024-03-23T11:42:00;1.43;;;1.43;;
10232;SDS011;5161;48.174;11.756;2024-03-23T11:50:34;1.60;;;1.50;;
10232;SDS011;5161;48.174;11.756;2024-03-23T11:53:08;1.50;;;1.40;;
10232;SDS011;5161;48.174;11.756;2024-03-23T11:55:42;2.83;;;1.40;;
10232;SDS011;5161;48.174;11.756;2024-03-23T11:58:21;1.60;;;1.50;;
10232;SDS011;5161;48.174;11.756;2024-03-23T12:00:49;2.73;;;1.60;;
10232;SDS011;5161;48.174;11.756;2024-03-23T12:03:17;1.47;;;1.43;;
10232;SDS011;5161;48.174;11.756;2024-03-23T12:05:47;1.70;;;1.60;;
10232;SDS011;5161;48.174;11.756;2024-03-23T12:08:15;1.90;;;1.80;;
10232;SDS011;5161;48.174;11.756;2024-03-23T12:10:46;1.80;;;1.70;;
10232;SDS011;5161;48.174;11.756;2024-03-23T12:13:20;2.47;;;2.27;;
10232;SDS011;5161;48.174;11.756;2024-03-23T12:15:47;1.90;;;1.80;;
10232;SDS011;5161;48.174;11.756;2024-03-23T12:18:14;3.17;;;2.17;;
10232;SDS011;5161;48.174;11.756;2024-03-23T12:20:40;2.00;;;1.90;;
10232;SDS011;5161;48.174;11.756;2024-03-23T12:23:07;1.87;;;1.77;;
10232;SDS011;5161;48.174;11.756;2024-03-23T12:25:33;1.67;;;1.67;;
10232;SDS011;5161;48.174;11.756;2024-03-23T12:28:00;2.60;;;2.40;;
10232;SDS011;5161;48.174;11.756;2024-03-23T12:30:25;2.07;;;1.97;;
10232;SDS011;5161;48.174;11.756;2024-03-23T12:32:51;2.17;;;2.00;;
10232;SDS011;5161;48.174;11.756;2024-03-23T12:35:16;1.87;;;1.77;;
10232;SDS011;5161;48.174;11.756;2024-03-23T12:37:43;2.23;;;2.13;;
10232;SDS011;5161;48.174;11.756;2024-03-23T12:40:09;2.20;;;2.00;;
10232;SDS011;5161;48.174;11.756;2024-03-23T12:42:35;4.13;;;2.33;;
10232;SDS011;5161;48.174;11.756;2024-03-23T12:45:00;2.50;;;2.30;;
10232;SDS011;5161;48.174;11.756;2024-03-23T12:47:26;2.67;;;2.30;;
10232;SDS011;5161;48.174;11.756;2024-03-23T12:49:52;2.73;;;2.53;;
10232;SDS011;5161;48.174;11.756;2024-03-23T12:52:17;2.50;;;2.30;;
10232;SDS011;5161;48.174;11.756;2024-03-23T12:54:46;2.13;;;2.03;;
10232;SDS011;5161;48.174;11.756;2024-03-23T12:57:12;2.50;;;2.30;;
10232;SDS011;5161;48.174;11.756;2024-03-23T12:59:37;4.40;;;2.40;;
10232;SDS011;5161;48.174;11.756;2024-03-23T13:02:03;2.57;;;2.37;;
10232;SDS011;5161;48.174;11.756;2024-03-23T13:04:29;3.27;;;2.40;;
10232;SDS011;5161;48.174;11.756;2024-03-23T13:06:54;3.10;;;2.70;;
10232;SDS011;5161;48.174;11.756;2024-03-23T13:09:20;2.80;;;2.60;;
10232;SDS011;5161;48.174;11.756;2024-03-23T13:11:46;3.83;;;2.97;;
10232;SDS011;5161;48.174;11.756;2024-03-23T13:14:11;5.53;;;2.93;;
10232;SDS011;5161;48.174;11.756;2024-03-23T13:16:39;3.63;;;3.30;;
10232;SDS011;5161;48.174;11.756;2024-03-23T13:19:05;3.00;;;2.80;;
10232;SDS011;5161;48.174;11.756;2024-03-23T13:21:30;4.17;;;3.40;;
10232;SDS011;5161;48.174;11.756;2024-03-23T13:23:56;4.93;;;2.97;;
10232;SDS011;5161;48.174;11.756;2024-03-23T13:26:22;3.10;;;2.80;;
10232;SDS011;5161;48.174;11.756;2024-03-23T13:28:48;3.47;;;3.00;;
10232;SDS011;5161;48.174;11.756;2024-03-23T13:31:13;6.03;;;3.10;;
10232;SDS011;5161;48.174;11.756;2024-03-23T13:33:39;5.50;;;3.30;;
10232;SDS011;5161;48.174;11.756;2024-03-23T13:36:07;6.90;;;3.27;;
10232;SDS011;5161;48.174;11.756;2024-03-23T13:38:33;4.73;;;3.30;;
10232;SDS011;5161;48.174;11.756;2024-03-23T13:40:59;5.07;;;3.60;;
10232;SDS011;5161;48.174;11.756;2024-03-23T13:43:25;5.03;;;3.23;;
10232;SDS011;5161;48.174;11.756;2024-03-23T13:46:01;3.47;;;2.90;;
10232;SDS011;5161;48.174;11.756;2024-03-23T13:48:27;3.37;;;3.07;;
10232;SDS011;5161;48.174;11.756;2024-03-23T13:50:57;4.53;;;3.03;;
10232;SDS011;5161;48.174;11.756;2024-03-23T13:53:23;3.27;;;2.60;;
10232;SDS011;5161;48.174;11.756;2024-03-23T13:55:49;4.50;;;3.30;;
10232;SDS011;5161;48.174;11.756;2024-03-23T13:58:15;4.33;;;2.97;;
10232;SDS011;5161;48.174;11.756;2024-03-23T14:00:41;4.83;;;3.30;;
10232;SDS011;5161;48.174;11.756;2024-03-23T14:03:10;3.30;;;3.00;;
10232;SDS011;5161;48.174;11.756;2024-03-23T14:05:37;5.00;;;3.60;;
10232;SDS011;5161;48.174;11.756;2024-03-23T14:08:06;5.43;;;3.37;;
10232;SDS011;5161;48.174;11.756;2024-03-23T14:10:40;4.23;;;3.83;;
10232;SDS011;5161;48.174;11.756;2024-03-23T14:13:06;6.53;;;4.40;;
10232;SDS011;5161;48.174;11.756;2024-03-23T14:15:32;5.80;;;4.27;;
10232;SDS011;5161;48.174;11.756;2024-03-23T14:17:58;4.27;;;3.87;;
10232;SDS011;5161;48.174;11.756;2024-03-23T14:20:24;5.67;;;3.70;;
10232;SDS011;5161;48.174;11.756;2024-03-23T14:22:50;4.90;;;3.57;;
10232;SDS011;5161;48.174;11.756;2024-03-23T14:25:16;4.87;;;4.10;;
10232;SDS011;5161;48.174;11.756;2024-03-23T14:27:45;5.27;;;3.80;;
10232;SDS011;5161;48.174;11.756;2024-03-23T14:30:12;4.63;;;4.20;;
10232;SDS011;5161;48.174;11.756;2024-03-23T14:32:38;6.67;;;3.83;;
10232;SDS011;5161;48.174;11.756;2024-03-23T14:35:04;5.13;;;3.83;;
10232;SDS011;5161;48.174;11.756;2024-03-23T14:37:32;4.83;;;4.03;;
10232;SDS011;5161;48.174;11.756;2024-03-23T14:39:57;5.53;;;4.17;;
10232;SDS011;5161;48.174;11.756;2024-03-23T14:42:23;5.57;;;3.90;;
10232;SDS011;5161;48.174;11.756;2024-03-23T14:44:52;5.13;;;3.90;;
10232;SDS011;5161;48.174;11.756;2024-03-23T14:47:18;6.03;;;3.97;;
10232;SDS011;5161;48.174;11.756;2024-03-23T14:49:44;6.37;;;3.60;;
10232;SDS011;5161;48.174;11.756;2024-03-23T14:52:15;4.70;;;3.50;;
10232;SDS011;5161;48.174;11.756;2024-03-23T14:54:41;6.27;;;4.03;;
10232;SDS011;5161;48.174;11.756;2024-03-23T14:57:06;4.30;;;3.90;;
10232;SDS011;5161;48.174;11.756;2024-03-23T14:59:34;3.40;;;3.10;;
10232;SDS011;5161;48.174;11.756;2024-03-23T15:02:00;3.80;;;3.10;;
10232;SDS011;5161;48.174;11.756;2024-03-23T15:04:26;3.57;;;2.83;;
10232;SDS011;5161;48.174;11.756;2024-03-23T15:06:51;5.33;;;2.90;;
10232;SDS011;5161;48.174;11.756;2024-03-23T15:09:17;2.90;;;2.47;;
10232;SDS011;5161;48.174;11.756;2024-03-23T15:11:43;5.00;;;2.60;;
10232;SDS011;5161;48.174;11.756;2024-03-23T15:14:08;2.97;;;2.50;;
10232;SDS011;5161;48.174;11.756;2024-03-23T15:16:35;3.87;;;2.90;;
10232;SDS011;5161;48.174;11.756;2024-03-23T15:19:02;3.43;;;2.80;;
10232;SDS011;5161;48.174;11.756;2024-03-23T15:21:27;3.70;;;2.60;;
10232;SDS011;5161;48.174;11.756;2024-03-23T15:23:53;4.07;;;2.60;;
10232;SDS011;5161;48.174;11.756;2024-03-23T15:26:18;3.33;;;2.50;;
10232;SDS011;5161;48.174;11.756;2024-03-23T15:28:47;4.53;;;2.67;;
10232;SDS011;5161;48.174;11.756;2024-03-23T15:31:19;3.70;;;2.20;;
10232;SDS011;5161;48.174;11.756;2024-03-23T15:33:44;3.57;;;2.03;;
10232;SDS011;5161;48.174;11.756;2024-03-23T15:36:10;3.60;;;2.20;;
10232;SDS011;5161;48.174;11.756;2024-03-23T15:38:36;2.70;;;2.30;;
10232;SDS011;5161;48.174;11.756;2024-03-23T15:41:03;3.70;;;2.47;;
10232;SDS011;5161;48.174;11.756;2024-03-23T15:43:29;5.13;;;2.30;;
10232;SDS011;5161;48.174;11.756;2024-03-23T15:45:59;3.67;;;2.40;;
10232;SDS011;5161;48.174;11.756;2024-03-23T15:48:26;3.37;;;2.30;;
10232;SDS011;5161;48.174;11.756;2024-03-23T15:50:53;2.77;;;2.40;;
10232;SDS011;5161;48.174;11.756;2024-03-23T15:53:20;2.40;;;2.20;;